Map

Track Data

SID SEASON NUMBER BASIN SUBBASIN NAME ISO_TIME NATURE LAT LON WMO_WIND WMO_PRES WMO_AGENCY TRACK_TYPE DIST2LAND LANDFALL IFLAG USA_AGENCY USA_ATCF_ID USA_LAT USA_LON USA_RECORD USA_STATUS USA_WIND USA_PRES USA_SSHS USA_R34_NE USA_R34_SE USA_R34_SW USA_R34_NW USA_R50_NE USA_R50_SE USA_R50_SW USA_R50_NW USA_R64_NE USA_R64_SE USA_R64_SW USA_R64_NW USA_POCI USA_ROCI USA_RMW USA_EYE TOKYO_LAT TOKYO_LON TOKYO_GRADE TOKYO_WIND TOKYO_PRES TOKYO_R50_DIR TOKYO_R50_LONG TOKYO_R50_SHORT TOKYO_R30_DIR TOKYO_R30_LONG TOKYO_R30_SHORT TOKYO_LAND CMA_LAT CMA_LON CMA_CAT CMA_WIND CMA_PRES HKO_LAT HKO_LON HKO_CAT HKO_WIND HKO_PRES NEWDELHI_LAT NEWDELHI_LON NEWDELHI_GRADE NEWDELHI_WIND NEWDELHI_PRES NEWDELHI_CI NEWDELHI_DP NEWDELHI_POCI REUNION_LAT REUNION_LON REUNION_TYPE REUNION_WIND REUNION_PRES REUNION_TNUM REUNION_CI REUNION_RMW REUNION_R34_NE REUNION_R34_SE REUNION_R34_SW REUNION_R34_NW REUNION_R50_NE REUNION_R50_SE REUNION_R50_SW REUNION_R50_NW REUNION_R64_NE REUNION_R64_SE REUNION_R64_SW REUNION_R64_NW BOM_LAT BOM_LON BOM_TYPE BOM_WIND BOM_PRES BOM_TNUM BOM_CI BOM_RMW BOM_R34_NE BOM_R34_SE BOM_R34_SW BOM_R34_NW BOM_R50_NE BOM_R50_SE BOM_R50_SW BOM_R50_NW BOM_R64_NE BOM_R64_SE BOM_R64_SW BOM_R64_NW BOM_ROCI BOM_POCI BOM_EYE BOM_POS_METHOD BOM_PRES_METHOD NADI_LAT NADI_LON NADI_CAT NADI_WIND NADI_PRES WELLINGTON_LAT WELLINGTON_LON WELLINGTON_WIND WELLINGTON_PRES DS824_LAT DS824_LON DS824_STAGE DS824_WIND DS824_PRES TD9636_LAT TD9636_LON TD9636_STAGE TD9636_WIND TD9636_PRES TD9635_LAT TD9635_LON TD9635_WIND TD9635_PRES TD9635_ROCI NEUMANN_LAT NEUMANN_LON NEUMANN_CLASS NEUMANN_WIND NEUMANN_PRES MLC_LAT MLC_LON MLC_CLASS MLC_WIND MLC_PRES USA_GUST BOM_GUST BOM_GUST_PER REUNION_GUST REUNION_GUST_PER USA_SEAHGT USA_SEARAD_NE USA_SEARAD_SE USA_SEARAD_SW USA_SEARAD_NW STORM_SPEED STORM_DIR
1894270N20087 1894 45 NI BB NOT_NAMED 1894-09-27 00:00:00 TS 19.9000 86.5000 main 15 0 _________O____ -1 19.9000 86.5000 TC 30 7 280
1894270N20087 1894 45 NI BB NOT_NAMED 1894-09-27 03:00:00 TS 19.9603 86.1251 main 0 0 _________PO___ -1 19.9904 85.9376 TC 30 19.9000 86.5000 1 8 282
1894270N20087 1894 45 NI BB NOT_NAMED 1894-09-27 06:00:00 TS 20.0653 85.6351 main 0 0 _________OP___ -1 20.1000 85.4000 TC 30 20.0134 85.9878 1 10 284
1894270N20087 1894 45 NI BB NOT_NAMED 1894-09-27 09:00:00 TS 20.1945 85.1443 main 0 0 _________PP___ -1 20.2422 84.8999 TC 30 20.1308 85.4702 1 9 286
1894270N20087 1894 45 NI BB NOT_NAMED 1894-09-27 12:00:00 TS 20.3289 84.6713 main 0 0 _________OP___ -1 20.4000 84.4000 TC 30 20.2579 84.9425 1 10 286
1894270N20087 1894 45 NI BB NOT_NAMED 1894-09-27 15:00:00 TS 20.4712 84.1287 main 0 0 _________PO___ -1 20.5424 83.8573 TC 30 20.4000 84.4000 1 11 286
1894270N20087 1894 45 NI BB NOT_NAMED 1894-09-27 18:00:00 TS 20.6303 83.5705 main 0 0 _________OP___ -1 20.7000 83.3000 TC 30 20.5606 83.8410 1 11 288
1894270N20087 1894 45 NI BB NOT_NAMED 1894-09-27 21:00:00 TS 20.8175 83.0063 main 0 0 _________PP___ -1 20.9000 82.7351 TC 30 20.7350 83.2776 1 11 290
1894270N20087 1894 45 NI BB NOT_NAMED 1894-09-28 00:00:00 TS 21.0084 82.4627 main 0 0 _________OP___ -1 21.1000 82.2000 TC 30 20.9169 82.7253 1 10 290
1894270N20087 1894 45 NI BB NOT_NAMED 1894-09-28 03:00:00 TS 21.1749 81.9674 main 0 0 _________PO___ -1 21.2498 81.7347 TC 30 21.1000 82.2000 1 10 290
1894270N20087 1894 45 NI BB NOT_NAMED 1894-09-28 06:00:00 TS 21.3314 81.4862 main 0 0 _________OP___ -1 21.4000 81.3000 TC 30 21.2627 81.6723 1 10 290
1894270N20087 1894 45 NI BB NOT_NAMED 1894-09-28 09:00:00 TS 21.5101 80.9963 main 0 0 _________PP___ -1 21.5926 80.8126 TC 30 21.4276 81.1799 1 9 294
1894270N20087 1894 45 NI BB NOT_NAMED 1894-09-28 12:00:00 TS 21.7018 80.5737 main 0 0 _________OP___ -1 21.8000 80.4000 TC 30 21.6036 80.7475 1 8 300
1894270N20087 1894 45 NI BB NOT_NAMED 1894-09-28 15:00:00 TS 21.8924 80.2737 main 0 0 _________PO___ -1 21.9848 80.1473 TC 30 21.8000 80.4000 1 6 312
1894270N20087 1894 45 NI BB NOT_NAMED 1894-09-28 18:00:00 TS 22.1200 80.0676 main 0 0 _________OP___ -1 22.2000 80.0000 TC 30 22.0400 80.1351 1 6 327
1894270N20087 1894 45 NI BB NOT_NAMED 1894-09-28 21:00:00 TS 22.3996 79.9137 main 0 0 _________PP___ -1 22.5000 79.8700 TC 30 22.2992 79.9573 1 6 338
1894270N20087 1894 45 NI BB NOT_NAMED 1894-09-29 00:00:00 TS 22.6795 79.8254 main 0 0 _________OP___ -1 22.8000 79.8000 TC 30 22.5589 79.8509 1 5 348
1894270N20087 1894 45 NI BB NOT_NAMED 1894-09-29 03:00:00 TS 22.9112 79.7887 main 0 0 _________PO___ -1 23.0225 79.7774 TC 30 22.8000 79.8000 1 4 355
1894270N20087 1894 45 NI BB NOT_NAMED 1894-09-29 06:00:00 TS 23.1023 79.7851 main 0 0 _________OP___ -1 23.2000 79.8000 TC 30 23.0046 79.7702 1 4 0
1894270N20087 1894 45 NI BB NOT_NAMED 1894-09-29 09:00:00 TS 23.2725 79.8160 main 0 0 _________PP___ -1 23.3575 79.8425 TC 30 23.1874 79.7896 1 3 14
1894270N20087 1894 45 NI BB NOT_NAMED 1894-09-29 12:00:00 TS 23.4258 79.8696 main 0 0 _________OP___ -1 23.5000 79.9000 TC 30 23.3515 79.8391 1 3 18
1894270N20087 1894 45 NI BB NOT_NAMED 1894-09-29 15:00:00 TS 23.5787 79.9250 main 0 0 _________PO___ -1 23.6575 79.9500 TC 30 23.5000 79.9000 1 3 16
1894270N20087 1894 45 NI BB NOT_NAMED 1894-09-29 18:00:00 TS 23.7197 79.9654 main 0 0 _________OP___ -1 23.8000 80.0000 TC 30 23.6393 79.9307 1 3 15
1894270N20087 1894 45 NI BB NOT_NAMED 1894-09-29 21:00:00 TS 23.8325 80.0026 main 0 0 _________PP___ -1 23.9000 80.0351 TC 30 23.7649 79.9701 1 2 21
1894270N20087 1894 45 NI BB NOT_NAMED 1894-09-30 00:00:00 TS 23.9415 80.0622 main 0 0 _________OP___ -1 24.0000 80.1000 TC 30 23.8831 80.0245 1 3 33
1894270N20087 1894 45 NI BB NOT_NAMED 1894-09-30 03:00:00 TS 24.0750 80.1712 main 0 0 _________PO___ -1 24.1500 80.2424 TC 30 24.0000 80.1000 1 4 39
1894270N20087 1894 45 NI BB NOT_NAMED 1894-09-30 06:00:00 TS 24.2146 80.3037 main 0 0 _________OP___ -1 24.3000 80.4000 TC 30 24.1291 80.2074 1 3 41
1894270N20087 1894 45 NI BB NOT_NAMED 1894-09-30 09:00:00 TS 24.3325 80.4212 main 0 0 _________PP___ -1 24.4075 80.5076 TC 30 24.2576 80.3349 1 3 43
1894270N20087 1894 45 NI BB NOT_NAMED 1894-09-30 12:00:00 TS 24.4411 80.5350 main 0 0 _________OP___ -1 24.5000 80.6000 TC 30 24.3822 80.4699 1 3 44
1894270N20087 1894 45 NI BB NOT_NAMED 1894-09-30 15:00:00 TS 24.5500 80.6500 main 0 0 _________PO___ -1 24.6000 80.7000 TC 30 24.5000 80.6000 1 3 44
1894270N20087 1894 45 NI BB NOT_NAMED 1894-09-30 18:00:00 TS 24.6478 80.7516 main 0 0 _________OP___ -1 24.7000 80.8000 TC 30 24.6087 80.7153 1 3 43
1894270N20087 1894 45 NI BB NOT_NAMED 1894-09-30 21:00:00 TS 24.7460 80.8505 main 0 0 _________PP___ -1 24.8000 80.9000 TC 30 24.7100 80.8175 1 3 42
1894270N20087 1894 45 NI BB NOT_NAMED 1894-10-01 00:00:00 TS 24.8375 80.9406 main 0 0 _________OP___ -1 24.9000 81.0000 TC 30 24.8062 80.9109 1 2 41
1894270N20087 1894 45 NI BB NOT_NAMED 1894-10-01 03:00:00 NR 24.9000 81.0000 main 0 __________O___ -1 TC 24.9000 81.0000 1 2 38

About IBTrACS Database

This database is a web-friendly format of International Best Track Archive for Climate Stewardship (IBTrACS), a global best track data archive curated by NOAA dating back to 1842.

Updated: 2021-12-01